Terminal Aerodrome Forecast
Issued by NWS Atlanta, GA

Home | Current Version | Previous Version | Text Only | Print | Product List | Glossary On
Versions: 1 2 3 4 5 6 7 8 9 10 11 12 13 14 15 16 17 18 19 20 21 22 23 24 25 26 27 28 29 30 31 32 33 34 35 36 37 38
000
FTAK31 PAJN 200018 AAA
TAFAHN
TAF AMD
PAHN 200018Z 2000/2024 30015KT 5SM -SHSN SCT025 BKN040
      TEMPO 2000/2002 2SM -SN BR BKN025
     FM200200 30012KT 4SM -SN SCT015 OVC025
     FM200400 30015KT 2SM -SN BLSN BKN020
     FM201200 30012G20KT 4SM BLSN SCT025 BKN070
     FM201600 30015G25KT P6SM SCT120
      AMD LTD TO CLD VIS AND WIND=

USA.gov is the U.S. government's official web portal to all federal, state and local government web resources and services.